createdAt,value
2022-11-22T00:01:10.670Z,4.47
2022-11-22T00:03:38.689Z,4.30
2022-11-22T00:06:06.859Z,3.70
2022-11-22T00:08:34.984Z,3.47
2022-11-22T00:11:03.199Z,3.83
2022-11-22T00:13:31.375Z,3.80
2022-11-22T00:16:00.649Z,3.53
2022-11-22T00:18:30.626Z,4.17
2022-11-22T00:20:58.649Z,4.67
2022-11-22T00:23:26.788Z,3.93
2022-11-22T00:25:54.908Z,3.73
2022-11-22T00:28:23.066Z,3.93
2022-11-22T00:30:51.212Z,3.70
2022-11-22T00:33:19.411Z,3.63
2022-11-22T00:35:48.889Z,3.47
2022-11-22T00:38:17.024Z,3.90
2022-11-22T00:40:45.143Z,4.20
2022-11-22T00:43:13.303Z,3.40
2022-11-22T00:45:42.867Z,3.60
2022-11-22T00:48:11.085Z,3.80
2022-11-22T00:50:39.789Z,4.03
2022-11-22T00:53:09.470Z,3.80
2022-11-22T00:55:37.538Z,3.87
2022-11-22T00:58:05.623Z,4.07
2022-11-22T01:00:33.725Z,4.07
2022-11-22T01:03:01.900Z,4.20
2022-11-22T01:05:30.101Z,4.80
2022-11-22T01:07:58.192Z,4.17
2022-11-22T01:10:27.601Z,3.80
2022-11-22T01:12:55.867Z,3.20
2022-11-22T01:15:24.163Z,4.30
2022-11-22T01:17:52.773Z,3.93
2022-11-22T01:20:20.813Z,4.03
2022-11-22T01:22:48.931Z,4.43
2022-11-22T01:25:17.093Z,4.13
2022-11-22T01:27:46.669Z,4.33
2022-11-22T01:30:15.373Z,4.83
2022-11-22T01:32:43.497Z,4.60
2022-11-22T01:35:11.854Z,4.50
2022-11-22T01:37:39.998Z,5.07
2022-11-22T01:40:09.490Z,4.77
2022-11-22T01:42:52.599Z,4.63
2022-11-22T01:45:44.614Z,4.50
2022-11-22T01:48:33.795Z,4.73
2022-11-22T01:51:07.053Z,4.63
2022-11-22T01:53:38.205Z,4.40
2022-11-22T01:56:10.561Z,4.07
2022-11-22T01:58:42.621Z,4.40
2022-11-22T02:01:10.818Z,4.70
2022-11-22T02:03:41.793Z,4.40
2022-11-22T02:06:09.837Z,4.73
2022-11-22T02:08:42.502Z,4.37
2022-11-22T02:11:12.008Z,4.60
2022-11-22T02:13:44.836Z,5.47
2022-11-22T02:16:13.428Z,5.03
2022-11-22T02:18:41.859Z,4.73
2022-11-22T02:21:10.146Z,4.43
2022-11-22T02:23:47.883Z,4.67
2022-11-22T02:26:17.647Z,5.13
2022-11-22T02:28:46.353Z,5.17
2022-11-22T02:31:36.606Z,4.20
2022-11-22T02:34:04.778Z,4.23
2022-11-22T02:36:36.968Z,4.60
2022-11-22T02:39:05.483Z,4.80
2022-11-22T02:41:36.260Z,4.20
2022-11-22T02:44:04.734Z,5.30
2022-11-22T02:46:32.766Z,4.17
2022-11-22T02:49:00.879Z,4.70
2022-11-22T02:51:28.993Z,4.40
2022-11-22T02:53:57.120Z,4.33
2022-11-22T02:56:25.155Z,4.50
2022-11-22T02:58:54.699Z,3.77
2022-11-22T03:01:23.731Z,4.47
2022-11-22T03:03:51.850Z,4.50
2022-11-22T03:06:19.821Z,4.90
2022-11-22T03:08:53.193Z,4.30
2022-11-22T03:11:24.429Z,4.37
2022-11-22T03:13:54.003Z,4.33
2022-11-22T03:16:22.322Z,4.50
2022-11-22T03:18:50.436Z,4.70
2022-11-22T03:21:18.463Z,3.97
2022-11-22T03:23:46.553Z,4.30
2022-11-22T03:26:14.776Z,4.00
2022-11-22T03:28:42.894Z,4.20
2022-11-22T03:31:12.277Z,4.50
2022-11-22T03:33:40.369Z,3.70
2022-11-22T03:36:08.526Z,3.80
2022-11-22T03:38:37.014Z,4.00
2022-11-22T03:41:05.275Z,3.70
2022-11-22T03:43:33.366Z,3.73
2022-11-22T03:46:01.485Z,3.60
2022-11-22T03:48:31.418Z,3.50
2022-11-22T03:51:05.698Z,3.70
2022-11-22T03:53:34.397Z,3.80
2022-11-22T03:56:02.752Z,3.40
2022-11-22T03:58:30.896Z,3.57
2022-11-22T04:01:00.031Z,3.70
2022-11-22T04:03:28.238Z,3.53
2022-11-22T04:05:58.239Z,3.80
2022-11-22T04:08:26.254Z,3.10
2022-11-22T04:10:54.746Z,3.60
2022-11-22T04:13:42.851Z,3.27
2022-11-22T04:16:09.952Z,2.80
2022-11-22T04:18:37.993Z,3.30
2022-11-22T04:21:21.321Z,3.20
2022-11-22T04:24:10.079Z,3.07
2022-11-22T04:26:37.632Z,3.60
2022-11-22T04:29:10.404Z,3.47
2022-11-22T04:31:56.648Z,3.50
2022-11-22T04:34:24.986Z,3.67
2022-11-22T04:36:54.491Z,3.10
2022-11-22T04:39:23.711Z,3.40
2022-11-22T04:42:13.773Z,3.00
2022-11-22T04:44:41.237Z,3.00
2022-11-22T04:47:09.804Z,3.40
2022-11-22T04:49:38.228Z,3.00
2022-11-22T04:52:25.361Z,2.47
2022-11-22T04:54:53.420Z,2.40
2022-11-22T04:57:21.560Z,2.60
2022-11-22T04:59:49.667Z,2.60
2022-11-22T05:02:17.884Z,2.03
2022-11-22T05:04:50.435Z,2.40
2022-11-22T05:07:20.409Z,2.37
2022-11-22T05:09:48.519Z,2.50
2022-11-22T05:12:16.680Z,2.03
2022-11-22T05:14:44.755Z,2.47
2022-11-22T05:17:13.618Z,2.73
2022-11-22T05:19:46.455Z,2.10
2022-11-22T05:22:17.735Z,2.10
2022-11-22T05:24:46.317Z,2.03
2022-11-22T05:27:14.412Z,2.17
2022-11-22T05:29:42.486Z,1.80
2022-11-22T05:32:10.622Z,2.37
2022-11-22T05:34:38.663Z,2.53
2022-11-22T05:37:06.788Z,2.30
2022-11-22T05:39:34.951Z,2.33
2022-11-22T05:42:05.940Z,2.00
2022-11-22T05:44:34.068Z,2.10
2022-11-22T05:47:02.266Z,2.30
2022-11-22T05:49:30.786Z,2.40
2022-11-22T05:51:59.255Z,2.10
2022-11-22T05:54:27.465Z,2.30
2022-11-22T05:56:55.510Z,2.93
2022-11-22T05:59:24.981Z,1.83
2022-11-22T06:01:53.280Z,2.60
2022-11-22T06:04:21.579Z,2.30
2022-11-22T06:06:49.838Z,2.50
2022-11-22T06:09:17.983Z,3.13
2022-11-22T06:11:46.033Z,2.90
2022-11-22T06:14:14.243Z,2.77
2022-11-22T06:16:43.798Z,2.50
2022-11-22T06:19:12.753Z,3.00
2022-11-22T06:21:40.763Z,2.73
2022-11-22T06:24:09.835Z,2.63
2022-11-22T06:26:39.536Z,2.77
2022-11-22T06:29:08.049Z,2.57
2022-11-22T06:31:36.976Z,2.70
2022-11-22T06:34:06.791Z,2.50
2022-11-22T06:36:35.880Z,2.60
2022-11-22T06:39:04.375Z,2.80
2022-11-22T06:41:34.702Z,3.30
2022-11-22T06:44:06.475Z,2.80
2022-11-22T06:46:35.164Z,3.80
2022-11-22T06:49:04.185Z,3.30
2022-11-22T06:51:34.354Z,3.60
2022-11-22T06:54:02.441Z,3.17
2022-11-22T06:56:32.227Z,3.70
2022-11-22T06:59:03.451Z,3.67
2022-11-22T07:01:32.189Z,3.73
2022-11-22T07:04:01.529Z,3.90
2022-11-22T07:06:31.035Z,3.33
2022-11-22T07:09:01.011Z,4.30
2022-11-22T07:11:31.416Z,4.10
2022-11-22T07:14:07.111Z,4.27
2022-11-22T07:16:36.912Z,4.30
2022-11-22T07:19:06.050Z,5.00
2022-11-22T07:21:34.414Z,4.77
2022-11-22T07:24:06.857Z,4.47
2022-11-22T07:26:35.013Z,5.30
2022-11-22T07:29:03.103Z,5.00
2022-11-22T07:31:31.144Z,5.50
2022-11-22T07:33:59.503Z,4.60
2022-11-22T07:36:29.459Z,5.57
2022-11-22T07:38:57.805Z,5.33
2022-11-22T07:41:27.196Z,4.80
2022-11-22T07:43:55.746Z,4.93
2022-11-22T07:46:26.428Z,4.77
2022-11-22T07:48:54.818Z,4.80
2022-11-22T07:51:23.134Z,4.83
2022-11-22T07:53:51.425Z,5.50
2022-11-22T07:56:20.005Z,5.20
2022-11-22T07:58:49.495Z,5.00
2022-11-22T08:01:19.403Z,4.77
2022-11-22T08:03:47.575Z,5.23
2022-11-22T08:06:16.483Z,6.40
2022-11-22T08:08:45.330Z,5.60
2022-11-22T08:11:13.767Z,5.10
2022-11-22T08:13:42.499Z,5.60
2022-11-22T08:16:14.500Z,4.60
2022-11-22T08:18:46.972Z,4.30
2022-11-22T08:21:15.666Z,4.70
2022-11-22T08:23:44.931Z,5.17
2022-11-22T08:26:15.905Z,4.80
2022-11-22T08:28:44.933Z,5.60
2022-11-22T08:31:16.430Z,5.43
2022-11-22T08:33:44.591Z,5.37
2022-11-22T08:36:12.797Z,5.43
2022-11-22T08:38:40.924Z,4.90
2022-11-22T08:41:08.999Z,5.73
2022-11-22T08:43:37.134Z,5.70
2022-11-22T08:46:05.694Z,5.27
2022-11-22T08:48:36.874Z,5.03
2022-11-22T08:51:11.339Z,5.13
2022-11-22T08:53:42.297Z,5.60
2022-11-22T08:56:13.498Z,5.50
2022-11-22T08:58:42.100Z,5.07
2022-11-22T09:01:13.073Z,5.67
2022-11-22T09:03:42.880Z,6.67
2022-11-22T09:11:49.318Z,11.53
2022-11-22T09:14:17.556Z,6.90
2022-11-22T09:16:45.585Z,7.97
2022-11-22T09:19:15.051Z,6.80
2022-11-22T09:21:43.206Z,6.17
2022-11-22T09:24:11.405Z,6.70
2022-11-22T09:26:39.569Z,7.67
2022-11-22T09:29:07.628Z,7.10
2022-11-22T09:31:36.074Z,6.83
2022-11-22T09:34:04.203Z,8.77
2022-11-22T09:36:33.648Z,5.80
2022-11-22T09:39:02.193Z,10.93
2022-11-22T09:41:50.291Z,8.93
2022-11-22T09:44:25.100Z,6.20
2022-11-22T09:46:55.944Z,6.40
2022-11-22T09:49:29.611Z,7.73
2022-11-22T09:52:08.587Z,8.10
2022-11-22T09:54:43.238Z,7.27
2022-11-22T09:57:16.439Z,6.20
2022-11-22T09:59:48.044Z,10.27
2022-11-22T10:02:22.590Z,8.60
2022-11-22T10:04:57.305Z,6.33
2022-11-22T10:07:32.196Z,6.87
2022-11-22T10:10:05.893Z,9.93
2022-11-22T10:12:41.331Z,6.23
2022-11-22T10:15:15.457Z,4.70
2022-11-22T10:17:53.573Z,6.30
2022-11-22T10:20:23.297Z,3.67
2022-11-22T10:22:52.939Z,4.10
2022-11-22T10:25:22.655Z,3.40
2022-11-22T10:27:59.100Z,3.60
2022-11-22T10:30:35.629Z,3.43
2022-11-22T10:33:14.207Z,4.13
2022-11-22T10:36:16.121Z,3.60
2022-11-22T10:39:08.681Z,2.90
2022-11-22T10:41:47.678Z,3.57
2022-11-22T10:44:25.538Z,3.20
2022-11-22T10:47:03.108Z,3.30
2022-11-22T10:49:46.977Z,3.47
2022-11-22T10:52:24.475Z,2.90
2022-11-22T10:55:04.500Z,2.97
2022-11-22T10:57:38.728Z,2.90
2022-11-22T11:00:19.255Z,3.00
2022-11-22T11:03:13.258Z,3.20
2022-11-22T11:06:20.988Z,3.00
2022-11-22T11:09:12.431Z,3.93
2022-11-22T11:11:31.289Z,3.10
2022-11-22T11:14:02.255Z,3.93
2022-11-22T11:16:33.929Z,3.13
2022-11-22T11:19:12.384Z,3.93
2022-11-22T11:21:40.415Z,3.23
2022-11-22T11:24:16.201Z,3.30
2022-11-22T11:26:54.665Z,3.27
2022-11-22T11:29:44.961Z,2.90
2022-11-22T11:32:14.966Z,3.60
2022-11-22T11:34:51.932Z,3.10
2022-11-22T11:37:26.324Z,3.00
2022-11-22T11:39:54.623Z,2.90
2022-11-22T11:42:30.007Z,2.80
2022-11-22T11:45:21.901Z,3.17
2022-11-22T11:47:50.005Z,3.20
2022-11-22T11:50:23.952Z,2.83
2022-11-22T11:52:59.055Z,3.63
2022-11-22T11:55:32.290Z,3.40
2022-11-22T11:58:05.007Z,3.40
2022-11-22T12:00:40.692Z,3.10
2022-11-22T12:03:13.264Z,3.47
2022-11-22T12:05:41.474Z,5.43
2022-11-22T12:08:30.087Z,3.50
2022-11-22T12:11:03.851Z,3.20
2022-11-22T12:13:57.703Z,2.87
2022-11-22T12:16:30.196Z,3.37
2022-11-22T12:19:05.372Z,3.53
2022-11-22T12:21:40.615Z,3.50
2022-11-22T12:24:45.291Z,3.23
2022-11-22T12:27:05.106Z,2.80
2022-11-22T12:29:38.586Z,4.97
2022-11-22T12:32:11.716Z,3.30
2022-11-22T12:34:49.824Z,4.30
2022-11-22T12:37:22.772Z,2.97
2022-11-22T12:39:54.126Z,2.80
2022-11-22T12:42:30.505Z,3.20
2022-11-22T12:45:03.895Z,3.00
2022-11-22T12:47:36.694Z,3.10
2022-11-22T12:50:10.514Z,2.83
2022-11-22T12:52:44.615Z,2.80
2022-11-22T12:55:18.737Z,2.80
2022-11-22T12:57:53.887Z,2.70
2022-11-22T13:00:25.426Z,3.00
2022-11-22T13:03:04.228Z,2.70
2022-11-22T13:05:37.644Z,3.00
2022-11-22T13:08:15.272Z,3.47
2022-11-22T13:10:46.376Z,3.30
2022-11-22T13:13:22.359Z,2.97
2022-11-22T13:15:53.912Z,2.83
2022-11-22T13:18:25.222Z,2.20
2022-11-22T13:21:00.344Z,2.87
2022-11-22T13:23:50.065Z,2.87
2022-11-22T13:26:27.923Z,3.27
2022-11-22T13:28:56.901Z,3.83
2022-11-22T13:31:26.353Z,3.43
2022-11-22T13:33:57.689Z,4.10
2022-11-22T13:36:47.597Z,2.40
2022-11-22T13:39:21.380Z,2.87
2022-11-22T13:42:03.200Z,3.93
2022-11-22T13:45:07.561Z,3.93
2022-11-22T13:47:43.021Z,2.50
2022-11-22T13:50:52.737Z,3.10
2022-11-22T13:53:32.604Z,2.87
2022-11-22T13:56:45.185Z,2.60
2022-11-22T13:59:17.307Z,2.47
2022-11-22T14:02:00.622Z,2.77
2022-11-22T14:04:44.312Z,2.63
2022-11-22T14:07:39.376Z,2.57
2022-11-22T14:10:28.048Z,2.43
2022-11-22T14:13:21.313Z,4.40
2022-11-22T14:15:58.229Z,3.20
2022-11-22T14:18:47.732Z,3.00
2022-11-22T14:21:40.278Z,3.13
2022-11-22T14:24:17.808Z,3.13
2022-11-22T14:26:54.475Z,4.53
2022-11-22T14:29:55.905Z,4.30
2022-11-22T14:32:26.153Z,3.80
2022-11-22T14:35:27.764Z,3.37
2022-11-22T14:38:40.255Z,3.33
2022-11-22T14:41:43.412Z,3.80
2022-11-22T14:44:17.246Z,4.70
2022-11-22T14:46:54.162Z,8.93
2022-11-22T14:49:32.642Z,7.20
2022-11-22T14:52:02.781Z,14.10
2022-11-22T14:54:39.816Z,5.60
2022-11-22T14:57:16.607Z,5.27
2022-11-22T15:00:07.164Z,4.00
2022-11-22T15:03:21.473Z,10.40
2022-11-22T15:09:16.807Z,23.93
2022-11-22T15:09:33.523Z,12.33
2022-11-22T15:12:22.364Z,11.80
2022-11-22T15:59:11.691Z,9.13
2022-11-22T16:01:44.784Z,6.87
2022-11-22T16:04:22.599Z,6.73
2022-11-22T16:06:52.456Z,10.87
2022-11-22T16:09:26.406Z,20.70
2022-11-22T16:12:01.188Z,38.80
2022-11-22T16:14:47.849Z,46.53
2022-11-22T16:17:29.055Z,45.97
2022-11-22T16:20:42.093Z,25.80
2022-11-22T16:23:26.948Z,23.30
2022-11-22T16:25:58.677Z,33.80
2022-11-22T16:28:35.486Z,9.10
2022-11-22T16:31:07.716Z,23.83
2022-11-22T16:33:37.164Z,11.80
2022-11-22T16:36:10.676Z,6.20
2022-11-22T16:38:38.934Z,17.20
2022-11-22T16:41:13.447Z,4.77
2022-11-22T16:43:41.718Z,4.90
2022-11-22T16:46:13.710Z,5.03
2022-11-22T16:48:43.703Z,6.20
2022-11-22T16:51:15.754Z,5.73
2022-11-22T16:53:47.068Z,4.60
2022-11-22T16:56:20.173Z,4.20
2022-11-22T16:58:49.098Z,7.33
2022-11-22T17:01:19.476Z,6.90
2022-11-22T17:03:50.526Z,5.97
2022-11-22T17:06:20.333Z,5.17
2022-11-22T17:08:48.989Z,5.57
2022-11-22T17:11:19.071Z,5.63
2022-11-22T17:13:48.082Z,5.43
2022-11-22T17:16:17.776Z,4.80
2022-11-22T17:18:46.581Z,4.37
2022-11-22T17:21:18.943Z,4.13
2022-11-22T17:23:47.163Z,4.17
2022-11-22T17:26:15.222Z,4.10
2022-11-22T17:28:43.315Z,5.20
2022-11-22T17:31:14.223Z,5.20
2022-11-22T17:33:42.293Z,5.07
2022-11-22T17:36:21.235Z,5.13
2022-11-22T17:38:49.515Z,5.20
2022-11-22T17:41:17.723Z,5.37
2022-11-22T17:43:46.013Z,12.50
2022-11-22T17:46:14.111Z,28.40
2022-11-22T17:48:42.367Z,48.43
2022-11-22T17:51:11.769Z,40.73
2022-11-22T17:53:41.287Z,39.57
2022-11-22T17:56:11.381Z,12.03
2022-11-22T17:58:40.237Z,12.03
2022-11-22T18:01:10.048Z,15.90
2022-11-22T18:03:38.284Z,7.70
2022-11-22T18:06:07.263Z,13.20
2022-11-22T18:08:35.432Z,23.57
2022-11-22T18:11:06.194Z,53.77
2022-11-22T18:13:37.429Z,12.00
2022-11-22T18:16:08.722Z,9.47
2022-11-22T18:18:56.327Z,8.70
2022-11-22T18:21:25.562Z,17.13
2022-11-22T18:23:53.668Z,14.70
2022-11-22T18:26:38.921Z,19.40
2022-11-22T18:31:56.546Z,25.13
2022-11-22T18:34:24.693Z,28.60
2022-11-22T18:36:55.997Z,23.33
2022-11-22T18:39:27.966Z,14.60
2022-11-22T18:41:57.791Z,14.70
2022-11-22T18:44:26.140Z,16.70
2022-11-22T18:46:54.341Z,16.63
2022-11-22T18:49:22.430Z,13.30
2022-11-22T18:51:50.577Z,22.90
2022-11-22T18:54:19.751Z,17.07
2022-11-22T18:56:47.905Z,11.70
2022-11-22T18:59:17.442Z,13.20
2022-11-22T19:01:45.813Z,18.60
2022-11-22T19:04:15.074Z,15.47
2022-11-22T19:06:43.754Z,16.60
2022-11-22T19:09:12.167Z,9.80
2022-11-22T19:11:40.874Z,13.87
2022-11-22T19:14:08.985Z,7.70
2022-11-22T19:16:38.595Z,13.53
2022-11-22T19:19:08.371Z,10.90
2022-11-22T19:21:36.480Z,13.93
2022-11-22T19:24:05.188Z,13.57
2022-11-22T19:26:33.241Z,14.50
2022-11-22T19:29:02.589Z,10.67
2022-11-22T19:31:31.500Z,11.50
2022-11-22T19:34:01.413Z,10.33
2022-11-22T19:36:33.876Z,9.40
2022-11-22T19:39:03.722Z,10.70
2022-11-22T19:41:32.223Z,11.40
2022-11-22T19:44:00.985Z,13.10
2022-11-22T19:46:29.880Z,16.17
2022-11-22T19:48:59.570Z,11.80
2022-11-22T19:51:30.797Z,10.90
2022-11-22T19:54:02.049Z,11.23
2022-11-22T19:56:33.334Z,9.23
2022-11-22T19:59:02.809Z,10.20
2022-11-22T20:01:32.965Z,10.73
2022-11-22T20:04:03.428Z,10.00
2022-11-22T20:06:34.503Z,8.80
2022-11-22T20:09:04.213Z,10.70
2022-11-22T20:11:32.606Z,9.07
2022-11-22T20:14:00.951Z,7.70
2022-11-22T20:16:30.651Z,9.03
2022-11-22T20:19:00.719Z,8.40
2022-11-22T20:21:30.781Z,7.90
2022-11-22T20:24:01.332Z,7.27
2022-11-22T20:26:30.407Z,7.40
2022-11-22T20:29:00.195Z,7.37
2022-11-22T20:31:30.874Z,6.43
2022-11-22T20:34:01.083Z,9.47
2022-11-22T20:36:30.916Z,7.47
2022-11-22T20:39:05.359Z,20.17
2022-11-22T20:41:37.229Z,12.60
2022-11-22T20:44:05.578Z,12.07
2022-11-22T20:46:37.332Z,8.53
2022-11-22T20:49:05.542Z,5.63
2022-11-22T20:51:35.876Z,5.40
2022-11-22T20:54:05.821Z,7.00
2022-11-22T20:56:34.240Z,8.50
2022-11-22T20:59:02.653Z,9.97
2022-11-22T21:01:32.226Z,6.70
2022-11-22T21:04:00.563Z,6.80
2022-11-22T21:06:29.070Z,7.57
2022-11-22T21:08:57.262Z,6.23
2022-11-22T21:11:29.696Z,6.23
2022-11-22T21:13:58.752Z,6.30
2022-11-22T21:16:29.044Z,6.97
2022-11-22T21:18:59.429Z,6.40
2022-11-22T21:21:28.192Z,6.23
2022-11-22T21:23:58.152Z,6.83
2022-11-22T21:26:28.668Z,6.60
2022-11-22T21:28:57.266Z,6.50
2022-11-22T21:31:25.497Z,7.20
2022-11-22T21:33:53.687Z,9.03
2022-11-22T21:36:22.566Z,15.13
2022-11-22T21:38:50.651Z,8.87
2022-11-22T21:44:10.712Z,6.80
2022-11-22T21:46:39.333Z,9.13
2022-11-22T21:49:07.675Z,10.73
2022-11-22T21:51:35.724Z,9.17
2022-11-22T21:54:04.726Z,5.07
2022-11-22T21:56:32.779Z,5.10
2022-11-22T21:59:01.097Z,5.17
2022-11-22T22:01:30.679Z,5.37
2022-11-22T22:03:59.115Z,4.90
2022-11-22T22:06:27.351Z,6.27
2022-11-22T22:08:55.783Z,5.40
2022-11-22T22:11:24.122Z,5.90
2022-11-22T22:13:54.174Z,4.97
2022-11-22T22:16:25.717Z,5.70
2022-11-22T22:18:55.220Z,5.20
2022-11-22T22:21:23.378Z,5.40
2022-11-22T22:23:51.539Z,5.67
2022-11-22T22:26:19.889Z,5.60
2022-11-22T22:28:48.015Z,6.37
2022-11-22T22:31:21.297Z,5.73
2022-11-22T22:33:50.535Z,6.17
2022-11-22T22:36:20.286Z,6.53
2022-11-22T22:38:48.434Z,6.00
2022-11-22T22:41:17.402Z,5.37
2022-11-22T22:43:47.223Z,6.40
2022-11-22T22:46:17.207Z,6.10
2022-11-22T22:48:45.507Z,6.00
2022-11-22T22:51:15.204Z,5.40
2022-11-22T22:53:45.542Z,5.67
2022-11-22T22:56:15.378Z,5.83
2022-11-22T22:58:43.736Z,6.50
2022-11-22T23:01:15.057Z,5.53
2022-11-22T23:03:43.127Z,5.30
2022-11-22T23:06:12.906Z,5.87
2022-11-22T23:08:44.502Z,6.37
2022-11-22T23:11:14.406Z,7.07
2022-11-22T23:13:43.971Z,6.67
2022-11-22T23:16:13.813Z,7.23
2022-11-22T23:18:43.740Z,7.13
2022-11-22T23:21:14.796Z,8.60
2022-11-22T23:23:42.867Z,17.60
2022-11-22T23:26:13.568Z,8.70
2022-11-22T23:28:41.833Z,9.43
2022-11-22T23:31:11.743Z,6.53
2022-11-22T23:33:40.512Z,8.57
2022-11-22T23:36:10.448Z,12.37
2022-11-22T23:38:38.935Z,6.60
2022-11-22T23:41:07.652Z,5.00
2022-11-22T23:43:37.070Z,4.63
2022-11-22T23:46:05.231Z,4.73
2022-11-22T23:48:33.264Z,5.10
2022-11-22T23:51:04.743Z,5.07
2022-11-22T23:53:32.771Z,4.80
2022-11-22T23:56:06.626Z,5.00
2022-11-22T23:58:36.269Z,5.00
